Terminal Aerodrome Forecast
Issued by NWS

Home | Current Version | Previous Version | Text Only | Print | Product List | Glossary On
Versions: 1 2 3 4 5 6 7 8 9 10 11 12 13 14 15 16 17 18 19 20 21 22
000
FTUS43 KIND 050800 AAA
TAFLAF
TAF AMD
KLAF 050821Z 0508/0606 34009KT P6SM BKN100
     FM051300 34008KT P6SM SCT200
     FM051800 30008KT P6SM SCT025
     FM060000 31004KT P6SM SCT250
      AMD LTD TO CLD VIS AND WIND TIL 051400=

USA.gov is the U.S. government's official web portal to all federal, state and local government web resources and services.